createdAt,value
2018-05-08T00:01:30.700Z,49.20
2018-05-08T00:03:59.576Z,48.40
2018-05-08T00:06:28.559Z,48.30
2018-05-08T00:08:57.533Z,47.20
2018-05-08T00:11:26.383Z,48.40
2018-05-08T00:13:55.359Z,48.70
2018-05-08T00:16:24.295Z,47.70
2018-05-08T00:18:54.139Z,47.10
2018-05-08T00:21:22.999Z,47.00
2018-05-08T00:23:52.636Z,47.10
2018-05-08T00:26:21.496Z,47.10
2018-05-08T00:28:51.140Z,49.30
2018-05-08T00:31:20.106Z,49.30
2018-05-08T00:33:48.983Z,49.20
2018-05-08T00:36:18.703Z,49.20
2018-05-08T00:38:48.353Z,48.20
2018-05-08T00:41:17.379Z,48.20
2018-05-08T00:43:47.043Z,47.90
2018-05-08T00:46:15.962Z,47.90
2018-05-08T00:48:44.855Z,49.00
2018-05-08T00:51:13.993Z,50.20
2018-05-08T00:53:42.773Z,49.10
2018-05-08T00:56:12.448Z,49.10
2018-05-08T00:58:41.355Z,49.10
2018-05-08T01:01:10.231Z,49.70
2018-05-08T01:03:39.217Z,50.50
2018-05-08T01:06:08.134Z,50.40
2018-05-08T01:08:37.012Z,49.50
2018-05-08T01:11:05.972Z,49.40
2018-05-08T01:13:34.848Z,48.90
2018-05-08T01:16:03.900Z,49.80
2018-05-08T01:18:32.785Z,50.90
2018-05-08T01:21:01.839Z,50.50
2018-05-08T01:23:30.812Z,50.60
2018-05-08T01:25:59.686Z,49.90
2018-05-08T01:28:29.432Z,49.70
2018-05-08T01:30:58.308Z,49.60
2018-05-08T01:33:27.258Z,49.60
2018-05-08T01:35:56.283Z,48.80
2018-05-08T01:38:25.173Z,49.50
2018-05-08T01:40:54.164Z,49.60
2018-05-08T01:43:23.042Z,49.80
2018-05-08T01:45:51.914Z,49.80
2018-05-08T01:48:20.879Z,50.10
2018-05-08T01:50:50.451Z,49.90
2018-05-08T01:53:19.523Z,49.90
2018-05-08T01:55:48.432Z,50.10
2018-05-08T01:58:17.338Z,50.50
2018-05-08T02:00:46.297Z,50.50
2018-05-08T02:03:16.003Z,49.90
2018-05-08T02:05:44.890Z,49.90
2018-05-08T02:08:13.801Z,50.50
2018-05-08T02:10:42.806Z,49.70
2018-05-08T02:13:11.699Z,50.00
2018-05-08T02:15:40.583Z,50.00
2018-05-08T02:18:10.024Z,49.80
2018-05-08T02:20:38.887Z,50.50
2018-05-08T02:23:07.807Z,50.60
2018-05-08T02:25:36.768Z,51.10
2018-05-08T02:28:05.646Z,52.00
2018-05-08T02:30:34.546Z,51.80
2018-05-08T02:33:03.658Z,52.40
2018-05-08T02:35:32.539Z,51.90
2018-05-08T02:38:01.440Z,52.70
2018-05-08T02:40:30.336Z,52.10
2018-05-08T02:42:59.695Z,52.10
2018-05-08T02:45:28.772Z,52.20
2018-05-08T02:47:57.626Z,52.50
2018-05-08T02:50:26.596Z,52.60
2018-05-08T02:52:56.146Z,53.40
2018-05-08T02:55:25.197Z,53.70
2018-05-08T02:57:54.091Z,52.80
2018-05-08T03:00:23.129Z,52.30
2018-05-08T03:02:52.080Z,51.80
2018-05-08T03:05:20.964Z,51.50
2018-05-08T03:07:49.959Z,51.40
2018-05-08T03:10:18.852Z,53.00
2018-05-08T03:12:47.877Z,53.30
2018-05-08T03:15:16.790Z,53.50
2018-05-08T03:17:45.654Z,53.20
2018-05-08T03:20:14.556Z,53.30
2018-05-08T03:22:43.575Z,53.00
2018-05-08T03:25:13.194Z,52.50
2018-05-08T03:27:42.135Z,52.40
2018-05-08T03:30:10.998Z,52.70
2018-05-08T03:32:39.866Z,52.90
2018-05-08T03:35:09.851Z,51.70
2018-05-08T03:37:38.826Z,52.00
2018-05-08T03:40:07.712Z,51.70
2018-05-08T03:42:37.868Z,51.50
2018-05-08T03:45:07.745Z,52.10
2018-05-08T03:47:36.638Z,51.70
2018-05-08T03:50:06.347Z,51.80
2018-05-08T03:52:36.079Z,52.20
2018-05-08T03:55:05.122Z,52.10
2018-05-08T03:57:34.059Z,51.40
2018-05-08T04:00:04.059Z,53.50
2018-05-08T04:05:50.607Z,53.40
2018-05-08T04:08:32.379Z,52.90
2018-05-08T04:11:01.376Z,52.50
2018-05-08T04:13:30.253Z,51.80
2018-05-08T04:15:59.283Z,51.00
2018-05-08T04:18:28.976Z,51.70
2018-05-08T04:20:58.001Z,51.20
2018-05-08T04:23:26.844Z,50.80
2018-05-08T04:25:55.772Z,50.50
2018-05-08T04:28:25.454Z,50.40
2018-05-08T04:30:54.334Z,50.40
2018-05-08T04:33:23.299Z,50.30
2018-05-08T04:35:52.219Z,49.50
2018-05-08T04:38:21.282Z,50.70
2018-05-08T04:40:50.624Z,51.30
2018-05-08T04:43:19.679Z,50.40
2018-05-08T04:45:48.746Z,50.20
2018-05-08T04:48:17.822Z,50.20
2018-05-08T04:50:46.787Z,50.40
2018-05-08T04:53:15.675Z,52.60
2018-05-08T04:55:44.603Z,51.10
2018-05-08T04:58:14.250Z,48.90
2018-05-08T05:00:43.151Z,48.90
2018-05-08T05:03:12.080Z,49.90
2018-05-08T05:05:40.976Z,49.90
2018-05-08T05:08:10.050Z,51.80
2018-05-08T05:10:39.006Z,51.90
2018-05-08T05:13:08.102Z,51.10
2018-05-08T05:15:36.996Z,50.70
2018-05-08T05:18:06.248Z,48.40
2018-05-08T05:20:35.141Z,45.90
2018-05-08T05:23:05.239Z,46.40
2018-05-08T05:25:34.159Z,46.40
2018-05-08T05:28:04.034Z,43.90
2018-05-08T05:30:32.912Z,43.90
2018-05-08T05:33:01.997Z,43.20
2018-05-08T05:35:30.867Z,43.60
2018-05-08T05:37:59.972Z,43.10
2018-05-08T05:40:28.978Z,41.70
2018-05-08T05:42:58.007Z,42.40
2018-05-08T05:45:26.987Z,42.50
2018-05-08T05:47:55.880Z,42.40
2018-05-08T05:50:24.763Z,40.90
2018-05-08T05:52:53.691Z,40.40
2018-05-08T05:55:22.563Z,39.40
2018-05-08T05:57:52.371Z,39.30
2018-05-08T06:00:21.430Z,39.20
2018-05-08T06:02:50.316Z,39.70
2018-05-08T06:05:19.469Z,38.80
2018-05-08T06:07:48.329Z,38.20
2018-05-08T06:10:17.252Z,38.50
2018-05-08T06:12:46.130Z,38.60
2018-05-08T06:15:15.054Z,39.40
2018-05-08T06:17:44.013Z,40.40
2018-05-08T06:20:12.883Z,42.60
2018-05-08T06:22:41.799Z,44.70
2018-05-08T06:25:10.695Z,45.80
2018-05-08T06:27:40.398Z,44.70
2018-05-08T06:30:09.263Z,44.70
2018-05-08T06:32:38.256Z,45.70
2018-05-08T06:35:07.206Z,46.20
2018-05-08T06:37:36.220Z,45.90
2018-05-08T06:40:05.375Z,46.20
2018-05-08T06:42:34.323Z,46.60
2018-05-08T06:45:03.666Z,44.80
2018-05-08T06:47:32.570Z,42.80
2018-05-08T06:50:03.016Z,43.20
2018-05-08T06:52:32.012Z,43.20
2018-05-08T06:55:01.104Z,43.20
2018-05-08T06:57:30.099Z,44.30
2018-05-08T06:59:59.024Z,45.60
2018-05-08T07:02:28.104Z,47.40
2018-05-08T07:04:57.140Z,48.70
2018-05-08T07:07:26.193Z,49.40
2018-05-08T07:09:55.239Z,50.00
2018-05-08T07:12:24.919Z,48.70
2018-05-08T07:14:53.973Z,48.70
2018-05-08T07:17:23.004Z,49.70
2018-05-08T07:19:51.959Z,49.40
2018-05-08T07:22:21.015Z,50.00
2018-05-08T07:24:50.895Z,51.00
2018-05-08T07:27:19.814Z,50.90
2018-05-08T07:29:48.828Z,50.90
2018-05-08T07:32:17.704Z,51.40
2018-05-08T07:34:47.395Z,51.10
2018-05-08T07:37:16.378Z,51.00
2018-05-08T07:39:45.365Z,51.10
2018-05-08T07:42:14.465Z,51.00
2018-05-08T07:44:43.361Z,50.80
2018-05-08T07:47:12.349Z,51.30
2018-05-08T07:49:41.320Z,51.40
2018-05-08T07:52:10.330Z,50.90
2018-05-08T07:54:39.359Z,50.50
2018-05-08T07:57:09.109Z,51.70
2018-05-08T07:59:38.129Z,51.60
2018-05-08T08:02:07.122Z,51.10
2018-05-08T08:04:36.547Z,49.80
2018-05-08T08:07:05.596Z,49.60
2018-05-08T08:09:35.335Z,50.10
2018-05-08T08:12:04.500Z,49.80
2018-05-08T08:14:33.537Z,50.00
2018-05-08T08:17:02.435Z,49.60
2018-05-08T08:19:31.731Z,49.90
2018-05-08T08:22:00.725Z,50.30
2018-05-08T08:24:29.830Z,51.40
2018-05-08T08:26:59.201Z,51.80
2018-05-08T08:29:28.159Z,51.80
2018-05-08T08:31:57.095Z,50.70
2018-05-08T08:34:26.206Z,50.50
2018-05-08T08:36:55.156Z,50.30
2018-05-08T08:39:24.388Z,49.80
2018-05-08T08:41:53.596Z,48.20
2018-05-08T08:44:23.250Z,47.30
2018-05-08T08:46:52.197Z,47.30
2018-05-08T08:49:22.138Z,47.00
2018-05-08T08:51:51.852Z,46.20
2018-05-08T08:54:20.828Z,46.20
2018-05-08T08:56:49.916Z,45.40
2018-05-08T08:59:19.630Z,39.70
2018-05-08T09:01:49.295Z,39.10
2018-05-08T09:04:18.272Z,39.10
2018-05-08T09:06:47.177Z,38.10
2018-05-08T09:09:16.259Z,38.60
2018-05-08T09:11:45.235Z,37.80
2018-05-08T09:14:14.221Z,37.70
2018-05-08T09:16:43.129Z,38.30
2018-05-08T09:19:12.016Z,38.40
2018-05-08T09:21:41.223Z,39.20
2018-05-08T09:24:10.360Z,39.60
2018-05-08T09:26:39.292Z,39.90
2018-05-08T09:29:08.336Z,39.70
2018-05-08T09:31:38.583Z,39.30
2018-05-08T09:34:08.285Z,38.50
2018-05-08T09:36:38.084Z,37.10
2018-05-08T09:39:07.059Z,37.00
2018-05-08T09:41:36.143Z,35.50
2018-05-08T09:44:05.378Z,36.40
2018-05-08T09:46:34.311Z,35.30
2018-05-08T09:49:03.357Z,36.60
2018-05-08T09:51:32.192Z,37.70
2018-05-08T09:54:01.297Z,39.50
2018-05-08T09:56:30.391Z,38.60
2018-05-08T09:58:59.644Z,36.80
2018-05-08T10:01:28.540Z,38.40
2018-05-08T10:03:57.846Z,36.80
2018-05-08T10:06:27.798Z,39.00
2018-05-08T10:08:56.682Z,38.90
2018-05-08T10:11:26.054Z,38.10
2018-05-08T10:13:55.739Z,38.10
2018-05-08T10:16:24.763Z,38.00
2018-05-08T10:18:54.735Z,39.70
2018-05-08T10:21:23.746Z,39.60
2018-05-08T10:23:52.907Z,40.00
2018-05-08T10:26:21.837Z,40.70
2018-05-08T10:28:51.006Z,40.80
2018-05-08T10:31:19.976Z,41.10
2018-05-08T10:33:49.206Z,40.20
2018-05-08T10:36:18.153Z,39.50
2018-05-08T10:38:47.095Z,39.90
2018-05-08T10:41:16.151Z,39.00
2018-05-08T10:43:45.226Z,39.40
2018-05-08T10:46:14.119Z,39.40
2018-05-08T10:48:43.069Z,38.70
2018-05-08T10:51:11.979Z,40.00
2018-05-08T10:53:44.694Z,37.50
2018-05-08T10:56:13.701Z,37.60
2018-05-08T10:58:43.743Z,36.50
2018-05-08T11:03:47.916Z,36.70
2018-05-08T11:06:16.835Z,36.50
2018-05-08T11:08:45.739Z,37.30
2018-05-08T11:11:14.684Z,37.80
2018-05-08T11:13:43.967Z,38.00
2018-05-08T11:16:12.862Z,37.20
2018-05-08T11:18:42.519Z,37.80
2018-05-08T11:21:11.539Z,37.70
2018-05-08T11:23:40.759Z,37.20
2018-05-08T11:26:10.432Z,36.50
2018-05-08T11:28:39.519Z,36.50
2018-05-08T11:31:08.672Z,37.50
2018-05-08T11:33:38.610Z,38.40
2018-05-08T11:36:07.619Z,38.40
2018-05-08T11:38:36.607Z,39.20
2018-05-08T11:41:06.691Z,38.20
2018-05-08T11:43:36.172Z,38.20
2018-05-08T11:46:05.083Z,38.00
2018-05-08T11:48:34.281Z,37.20
2018-05-08T11:51:03.971Z,37.50
2018-05-08T11:53:32.853Z,37.50
2018-05-08T11:56:01.764Z,36.90
2018-05-08T11:58:31.422Z,38.50
2018-05-08T12:01:00.719Z,38.40
2018-05-08T12:03:29.718Z,38.10
2018-05-08T12:05:58.820Z,37.50
2018-05-08T12:08:27.944Z,37.10
2018-05-08T12:10:56.976Z,36.40
2018-05-08T12:13:26.033Z,36.60
2018-05-08T12:15:54.993Z,36.40
2018-05-08T12:18:24.109Z,36.60
2018-05-08T12:20:53.335Z,36.00
2018-05-08T12:23:23.047Z,36.10
2018-05-08T12:25:53.391Z,37.50
2018-05-08T12:28:22.584Z,36.80
2018-05-08T12:30:52.860Z,38.50
2018-05-08T12:33:21.876Z,38.50
2018-05-08T12:35:50.845Z,38.30
2018-05-08T12:38:20.130Z,39.00
2018-05-08T12:40:49.056Z,39.20
2018-05-08T12:43:18.818Z,38.00
2018-05-08T12:45:47.831Z,37.90
2018-05-08T12:48:16.943Z,37.00
2018-05-08T12:50:45.852Z,35.30
2018-05-08T12:53:15.522Z,34.60
2018-05-08T12:55:44.552Z,34.60
2018-05-08T12:58:13.656Z,34.60
2018-05-08T13:00:42.777Z,35.60
2018-05-08T13:03:12.066Z,36.40
2018-05-08T13:05:40.969Z,35.60
2018-05-08T13:08:09.962Z,36.30
2018-05-08T13:10:38.954Z,36.20
2018-05-08T13:13:08.417Z,36.40
2018-05-08T13:15:37.727Z,36.70
2018-05-08T13:18:06.664Z,36.70
2018-05-08T13:20:35.711Z,37.60
2018-05-08T13:23:05.430Z,37.50
2018-05-08T13:25:34.572Z,37.50
2018-05-08T13:28:04.128Z,37.00
2018-05-08T13:30:33.829Z,37.20
2018-05-08T13:33:02.905Z,37.10
2018-05-08T13:35:32.033Z,37.80
2018-05-08T13:38:01.301Z,37.10
2018-05-08T13:40:30.586Z,36.70
2018-05-08T13:42:59.612Z,36.10
2018-05-08T13:45:29.323Z,36.70
2018-05-08T13:47:59.511Z,35.80
2018-05-08T13:50:28.436Z,35.60
2018-05-08T13:52:57.354Z,34.50
2018-05-08T13:55:26.398Z,34.20
2018-05-08T13:57:55.424Z,34.20
2018-05-08T14:00:24.539Z,34.40
2018-05-08T14:02:53.437Z,34.20
2018-05-08T14:05:22.575Z,35.00
2018-05-08T14:07:52.353Z,35.10
2018-05-08T14:10:21.290Z,35.10
2018-05-08T14:12:50.206Z,35.00
2018-05-08T14:15:19.121Z,34.70
2018-05-08T14:17:48.118Z,35.70
2018-05-08T14:20:17.329Z,35.10
2018-05-08T14:22:46.427Z,35.50
2018-05-08T14:25:15.386Z,35.80
2018-05-08T14:27:45.136Z,34.90
2018-05-08T14:30:14.082Z,34.90
2018-05-08T14:32:43.215Z,35.40
2018-05-08T14:35:12.158Z,35.50
2018-05-08T14:37:41.177Z,35.00
2018-05-08T14:40:10.090Z,35.30
2018-05-08T14:42:39.095Z,36.10
2018-05-08T14:45:08.415Z,37.00
2018-05-08T14:47:37.376Z,37.50
2018-05-08T14:50:06.376Z,36.50
2018-05-08T14:52:35.348Z,35.70
2018-05-08T14:55:04.397Z,35.60
2018-05-08T14:57:33.363Z,36.00
2018-05-08T15:00:02.364Z,36.50
2018-05-08T15:02:31.328Z,35.20
2018-05-08T15:05:00.232Z,34.50
2018-05-08T15:07:29.566Z,38.40
2018-05-08T15:09:58.538Z,40.50
2018-05-08T15:12:28.259Z,43.30
2018-05-08T15:14:57.204Z,43.30
2018-05-08T15:17:26.342Z,43.90
2018-05-08T15:19:55.257Z,45.20
2018-05-08T15:22:24.203Z,46.50
2018-05-08T15:24:53.170Z,47.40
2018-05-08T15:27:22.072Z,47.80
2018-05-08T15:29:51.145Z,47.40
2018-05-08T15:32:20.354Z,48.30
2018-05-08T15:34:49.414Z,50.70
2018-05-08T15:37:18.605Z,56.70
2018-05-08T15:39:47.590Z,65.40
2018-05-08T15:42:16.490Z,70.80
2018-05-08T15:44:45.411Z,69.90
2018-05-08T15:47:14.451Z,68.00
2018-05-08T15:49:44.195Z,74.00
2018-05-08T15:52:14.955Z,78.80
2018-05-08T15:54:44.003Z,78.80
2018-05-08T15:57:12.920Z,80.20
2018-05-08T15:59:41.894Z,86.30
2018-05-08T16:02:11.147Z,84.40
2018-05-08T16:04:40.160Z,82.10
2018-05-08T16:07:09.395Z,81.70
2018-05-08T16:09:39.192Z,84.40
2018-05-08T16:12:08.251Z,84.30
2018-05-08T16:14:37.332Z,85.70
2018-05-08T16:17:06.243Z,85.20
2018-05-08T16:19:35.217Z,85.70
2018-05-08T16:22:04.220Z,83.70
2018-05-08T16:24:33.265Z,83.80
2018-05-08T16:27:02.202Z,82.00
2018-05-08T16:29:31.137Z,84.30
2018-05-08T16:32:01.058Z,83.30
2018-05-08T16:34:29.969Z,84.20
2018-05-08T16:36:59.098Z,83.60
2018-05-08T16:39:29.093Z,81.60
2018-05-08T16:41:59.247Z,80.90
2018-05-08T16:44:28.696Z,80.40
2018-05-08T16:46:58.122Z,81.30
2018-05-08T16:49:28.021Z,81.10
2018-05-08T16:51:58.101Z,81.20
2018-05-08T16:54:27.221Z,81.10
2018-05-08T16:56:57.111Z,80.60
2018-05-08T16:59:26.037Z,81.00
2018-05-08T17:01:55.855Z,81.60
2018-05-08T17:04:25.034Z,81.40
2018-05-08T17:06:54.978Z,81.50
2018-05-08T17:09:23.928Z,81.80
2018-05-08T17:11:53.030Z,82.60
2018-05-08T17:14:23.385Z,84.10
2018-05-08T17:16:52.475Z,84.10
2018-05-08T17:19:22.450Z,83.70
2018-05-08T17:21:52.133Z,83.70
2018-05-08T17:24:21.228Z,82.80
2018-05-08T17:26:51.300Z,83.00
2018-05-08T17:29:21.131Z,82.70
2018-05-08T17:31:50.222Z,82.30
2018-05-08T17:34:20.736Z,82.60
2018-05-08T17:36:50.743Z,82.20
2018-05-08T17:39:20.020Z,81.90
2018-05-08T17:41:50.249Z,81.30
2018-05-08T17:44:19.587Z,81.30
2018-05-08T17:46:49.504Z,81.50
2018-05-08T17:49:19.438Z,81.50
2018-05-08T17:51:48.445Z,81.50
2018-05-08T17:54:18.886Z,80.60
2018-05-08T17:56:49.546Z,78.40
2018-05-08T17:59:19.971Z,77.80
2018-05-08T18:01:49.717Z,77.80
2018-05-08T18:04:21.624Z,77.90
2018-05-08T18:06:50.817Z,77.50
2018-05-08T18:09:21.314Z,78.60
2018-05-08T18:11:51.687Z,78.60
2018-05-08T18:14:20.898Z,78.20
2018-05-08T18:16:50.409Z,78.40
2018-05-08T18:19:19.413Z,79.00
2018-05-08T18:21:48.471Z,79.10
2018-05-08T18:24:18.716Z,80.00
2018-05-08T18:26:49.440Z,80.30
2018-05-08T18:29:20.719Z,79.50
2018-05-08T18:31:51.618Z,79.50
2018-05-08T18:34:23.737Z,79.60
2018-05-08T18:36:52.885Z,79.90
2018-05-08T18:39:22.776Z,81.00
2018-05-08T18:41:52.029Z,81.20
2018-05-08T18:44:21.310Z,81.60
2018-05-08T18:46:50.725Z,80.80
2018-05-08T18:49:19.984Z,80.30
2018-05-08T18:51:49.973Z,80.40
2018-05-08T18:54:19.465Z,80.40
2018-05-08T18:56:48.399Z,80.60
2018-05-08T18:59:17.511Z,79.70
2018-05-08T19:01:48.485Z,80.40
2018-05-08T19:04:20.604Z,80.50
2018-05-08T19:06:51.713Z,80.00
2018-05-08T19:09:22.130Z,79.40
2018-05-08T19:11:52.129Z,80.20
2018-05-08T19:14:23.000Z,80.00
2018-05-08T19:16:55.204Z,80.40
2018-05-08T19:19:31.719Z,80.00
2018-05-08T19:22:04.619Z,79.80
2018-05-08T19:24:35.858Z,80.00
2018-05-08T19:27:05.148Z,80.60
2018-05-08T19:29:40.852Z,80.00
2018-05-08T19:32:11.327Z,79.60
2018-05-08T19:37:48.610Z,79.50
2018-05-08T19:40:18.893Z,78.30
2018-05-08T19:42:49.172Z,79.00
2018-05-08T19:45:19.521Z,78.20
2018-05-08T19:47:48.529Z,77.80
2018-05-08T19:50:17.733Z,77.10
2018-05-08T19:52:46.858Z,77.30
2018-05-08T19:55:17.229Z,78.90
2018-05-08T19:57:47.100Z,78.90
2018-05-08T20:00:18.595Z,82.50
2018-05-08T20:02:48.369Z,83.50
2018-05-08T20:05:18.361Z,83.50
2018-05-08T20:07:47.572Z,81.60
2018-05-08T20:10:17.004Z,81.80
2018-05-08T20:12:46.703Z,81.90
2018-05-08T20:15:16.086Z,81.20
2018-05-08T20:17:48.067Z,82.20
2018-05-08T20:20:17.848Z,82.40
2018-05-08T20:22:46.934Z,82.40
2018-05-08T20:25:15.878Z,82.40
2018-05-08T20:27:45.772Z,81.40
2018-05-08T20:30:15.437Z,82.30
2018-05-08T20:32:45.070Z,82.20
2018-05-08T20:35:14.037Z,82.80
2018-05-08T20:37:43.776Z,80.90
2018-05-08T20:40:14.497Z,80.00
2018-05-08T20:42:44.261Z,79.90
2018-05-08T20:45:13.232Z,79.40
2018-05-08T20:47:42.313Z,79.30
2018-05-08T20:50:12.428Z,81.20
2018-05-08T20:52:43.140Z,81.10
2018-05-08T20:55:12.180Z,81.30
2018-05-08T20:57:41.981Z,81.60
2018-05-08T21:00:11.069Z,81.50
2018-05-08T21:02:44.548Z,82.40
2018-05-08T21:05:13.838Z,82.40
2018-05-08T21:07:42.824Z,82.70
2018-05-08T21:10:11.736Z,81.80
2018-05-08T21:12:40.657Z,81.20
2018-05-08T21:15:09.757Z,81.60
2018-05-08T21:17:38.875Z,81.20
2018-05-08T21:20:08.647Z,81.30
2018-05-08T21:22:37.592Z,81.30
2018-05-08T21:25:06.509Z,83.00
2018-05-08T21:27:41.079Z,84.20
2018-05-08T21:30:15.576Z,84.10
2018-05-08T21:32:46.124Z,83.40
2018-05-08T21:35:15.135Z,83.30
2018-05-08T21:37:44.141Z,84.60
2018-05-08T21:40:13.271Z,84.30
2018-05-08T21:42:42.160Z,84.50
2018-05-08T21:45:11.041Z,84.80
2018-05-08T21:47:43.413Z,85.10
2018-05-08T21:50:12.617Z,86.00
2018-05-08T21:52:42.081Z,86.90
2018-05-08T21:55:11.089Z,86.10
2018-05-08T21:57:40.008Z,86.80
2018-05-08T22:00:12.892Z,87.30
2018-05-08T22:02:41.801Z,87.80
2018-05-08T22:05:11.619Z,87.20
2018-05-08T22:07:40.538Z,87.10
2018-05-08T22:10:09.444Z,87.20
2018-05-08T22:12:38.333Z,87.20
2018-05-08T22:15:07.240Z,87.60
2018-05-08T22:17:36.196Z,87.30
2018-05-08T22:20:05.343Z,86.80
2018-05-08T22:22:34.203Z,88.00
2018-05-08T22:25:03.115Z,89.20
2018-05-08T22:27:32.800Z,89.00
2018-05-08T22:30:01.806Z,89.00
2018-05-08T22:32:30.725Z,89.00
2018-05-08T22:34:59.732Z,88.50
2018-05-08T22:37:29.531Z,88.30
2018-05-08T22:39:58.423Z,88.30
2018-05-08T22:42:28.087Z,88.50
2018-05-08T22:44:56.991Z,88.40
2018-05-08T22:47:26.199Z,89.00
2018-05-08T22:49:55.448Z,88.80
2018-05-08T22:52:24.354Z,88.00
2018-05-08T22:54:53.513Z,89.00
2018-05-08T22:57:23.191Z,89.40
2018-05-08T22:59:52.119Z,89.40
2018-05-08T23:02:21.799Z,89.70
2018-05-08T23:04:50.704Z,89.70
2018-05-08T23:07:20.447Z,89.90
2018-05-08T23:09:50.260Z,89.90
2018-05-08T23:12:19.154Z,90.50
2018-05-08T23:14:48.046Z,90.00
2018-05-08T23:17:16.951Z,89.50
2018-05-08T23:19:45.865Z,89.90
2018-05-08T23:22:14.800Z,89.90
2018-05-08T23:24:43.708Z,89.80
2018-05-08T23:27:12.876Z,89.90
2018-05-08T23:29:42.571Z,90.00
2018-05-08T23:32:11.444Z,90.00
2018-05-08T23:34:40.354Z,89.50
2018-05-08T23:37:09.244Z,88.80
2018-05-08T23:39:38.219Z,88.70
2018-05-08T23:42:07.127Z,88.90
2018-05-08T23:44:36.042Z,89.00
2018-05-08T23:47:05.695Z,89.20
2018-05-08T23:49:34.609Z,89.20
2018-05-08T23:52:03.513Z,89.40
2018-05-08T23:54:33.195Z,89.20
2018-05-08T23:57:02.111Z,89.10
2018-05-08T23:59:31.833Z,90.50
